• Join FlightAware (Why Join?)
  • Login
  • US Flag 
07:56AM EDT


 

Airport Tracker/Info


-or-


 

Live Flight TrackerFlight Track Log ✈ SKW7363 ✈ 18-Oct-2013 ✈ KABR - KMSP

Flight Track Log - Related Links

Times and Time Zones

All times are in EDT time to prevent confusion due to time zone crossing. See the SKW7363 flight status page for this flight to view local times or setup timezone preferences in your user account.

Time Position Orientation Groundspeed Altitude Reporting Facility
EDT Latitude Longitude Course Direction KTS MPH feet Rate Location/Type
02:28PM 45.4489 -98.2783 112° Southeast 258 297 7,300  Level Minneapolis Center
02:29PM 45.3784 -97.6281 114° Southeast  Level Estimated
02:29PM 45.4181 -98.1669 111° Southeast 277 319 9,300  Level Minneapolis Center
02:30PM 45.3661 -97.4960 115° Southeast  Level Estimated
02:30PM 45.3708 -98.0172 114° Southeast 355 409 12,200  Level Minneapolis Center
02:31PM 45.3537 -97.3640 113° Southeast  Level Estimated
02:31PM 45.3317 -97.8850 113° Southeast 361 415 14,300  Level Minneapolis Center
02:32PM 45.3304 -97.1221 112° Southeast  Level Estimated
02:32PM 45.2903 -97.7472 113° Southeast 373 429 17,000  Level Minneapolis Center
02:33PM 45.2392 -97.5767 113° Southeast 387 445 19,100 1,980 Climbing Minneapolis Center
02:34PM 45.1947 -97.4322 114° Southeast 396 456 21,100 1,560 Climbing Minneapolis Center
02:35PM 45.1503 -97.2839 113° Southeast 405 466 22,400 1,320 Climbing Minneapolis Center
02:36PM 45.1036 -97.1317 113° Southeast 417 480 23,900 1,260 Climbing Minneapolis Center
02:37PM 45.0650 -96.9742 109° East 424 488 25,100 1,200 Climbing Minneapolis Center
02:38PM 45.0417 -96.8067 101° East 433 498 26,400 840 Climbing Minneapolis Center
02:39PM 45.0092 -96.6042 103° East 440 506 26,900 420 Climbing Minneapolis Center
02:40PM 44.9822 -96.4283 102° East 454 522 27,400 420 Climbing Minneapolis Center
02:41PM 44.9544 -96.2494 102° East 463 533 27,800 60 Climbing Minneapolis Center
02:42PM 44.9250 -96.0672 103° East 473 544 27,600 -360 Descending Minneapolis Center
02:43PM 44.8961 -95.8858 103° East 473 544 27,100 -420 Descending Minneapolis Center
02:44PM 44.8692 -95.7119 102° East 458 527 26,800 -600 Descending Minneapolis Center
02:45PM 44.8378 -95.4997 102° East 461 531 25,900 -1,500 Descending Minneapolis Center
02:46PM 44.8200 -95.3253 98° East 453 521 23,800 -2,040 Descending Minneapolis Center
02:47PM 44.8022 -95.1561 98° East 442 509 21,800 -1,980 Descending Minneapolis Center
02:48PM 44.7856 -94.9933 98° East 427 491 19,800 -1,920 Descending Minneapolis Center
02:50PM 44.7694 -94.8358 98° East 414 476 17,900 -1,740 Descending Minneapolis Center
02:51PM 44.7528 -94.6797 98° East 407 468 16,300 -1,740 Descending Minneapolis Center
02:52PM 44.7336 -94.5108 99° East 399 459 14,400 -1,740 Descending Minneapolis Center
02:53PM 44.7169 -94.3631 99° East 386 444 12,800 -1,440 Descending Minneapolis Center
02:54PM 44.7008 -94.2206 99° East 373 429 11,500 -900 Descending Minneapolis Center
02:55PM 44.7100 -94.0822 85° East 361 415 11,000 -240 Descending Minneapolis Center
02:56PM 44.7472 -93.9158 72° East 377 434 11,100  Climbing Minneapolis Center
02:57PM 44.7794 -93.7697 73° East 389 448 11,000 -60 Descending Minneapolis Center
02:58PM 44.8119 -93.6225 73° East 392 451 11,000 -240 Level Minneapolis Center
02:59PM 44.8425 -93.4828 73° East 370 426 10,600 -900 Descending Minneapolis Center
03:00PM 44.8508 -93.3686 84° East 306 352 9,200 -1,320 Descending Minneapolis Center
03:01PM 44.7978 -93.2508 122° Southeast 293 337 7,900 -1,380 Descending Minneapolis Center
03:02PM 44.7622 -93.1711 122° Southeast 285 328 6,400 -1,920 Descending Minneapolis Center
03:03PM 44.7342 -93.0600 110° East 259 298 4,000 -1,200 Descending Minneapolis Center
03:04PM 44.7869 -93.0628 358° North 210 242 4,000 -540 Level Minneapolis Center
03:05PM 44.8258 -93.0986 327° Northwest 169 194 2,900 -1,020 Descending Minneapolis Center
03:06PM 44.8481 -93.1419 306° West 138 159 1,900 -960 Descending Minneapolis Center
03:07PM 44.8694 -93.1919 301° West 126 145 1,000 -900 Descending Minneapolis Center